createdAt,value
2023-05-15T00:00:51.887Z,10.50
2023-05-15T00:04:47.740Z,10.20
2023-05-15T00:05:48.623Z,10.40
2023-05-15T00:06:49.570Z,9.80
2023-05-15T00:07:50.446Z,10.30
2023-05-15T00:08:51.355Z,11.40
2023-05-15T00:09:52.351Z,10.00
2023-05-15T00:11:00.717Z,9.80
2023-05-15T00:11:55.016Z,11.60
2023-05-15T00:12:54.888Z,11.20
2023-05-15T00:13:55.762Z,9.70
2023-05-15T00:14:56.645Z,10.10
2023-05-15T00:15:57.755Z,9.20
2023-05-15T00:16:58.140Z,11.00
2023-05-15T00:17:59.080Z,11.80
2023-05-15T00:19:00.092Z,9.10
2023-05-15T00:23:12.009Z,9.00
2023-05-15T00:24:12.888Z,9.70
2023-05-15T00:25:13.845Z,11.80
2023-05-15T00:26:14.708Z,10.30
2023-05-15T00:27:15.603Z,10.40
2023-05-15T00:28:16.498Z,9.60
2023-05-15T00:29:17.553Z,9.60
2023-05-15T00:30:18.171Z,11.40
2023-05-15T00:31:18.604Z,9.90
2023-05-15T00:32:19.498Z,12.20
2023-05-15T00:33:20.377Z,11.00
2023-05-15T00:34:21.367Z,11.60
2023-05-15T00:35:22.371Z,11.80
2023-05-15T00:36:22.794Z,10.30
2023-05-15T00:37:23.699Z,11.30
2023-05-15T00:38:24.626Z,10.40
2023-05-15T00:39:25.567Z,11.00
2023-05-15T00:40:26.444Z,10.20
2023-05-15T00:41:27.332Z,10.40
2023-05-15T00:42:28.236Z,11.70
2023-05-15T00:43:29.148Z,12.40
2023-05-15T00:44:30.038Z,12.00
2023-05-15T00:45:30.930Z,10.80
2023-05-15T00:46:31.934Z,13.20
2023-05-15T00:47:34.202Z,11.50
2023-05-15T00:48:33.105Z,13.10
2023-05-15T00:49:33.987Z,10.70
2023-05-15T00:50:34.871Z,11.60
2023-05-15T00:51:35.759Z,11.40
2023-05-15T00:52:36.700Z,11.10
2023-05-15T00:53:37.596Z,11.90
2023-05-15T00:54:38.536Z,11.80
2023-05-15T00:55:39.448Z,11.50
2023-05-15T00:56:40.314Z,9.90
2023-05-15T00:57:41.239Z,10.20
2023-05-15T00:58:42.125Z,11.30
2023-05-15T00:59:42.994Z,10.60
2023-05-15T01:00:43.960Z,11.40
2023-05-15T01:01:44.883Z,10.80
2023-05-15T01:02:45.903Z,10.70
2023-05-15T01:03:46.348Z,14.20
2023-05-15T01:04:47.273Z,10.40
2023-05-15T01:05:48.156Z,10.90
2023-05-15T01:06:49.058Z,11.40
2023-05-15T01:07:49.957Z,9.50
2023-05-15T01:08:50.847Z,10.40
2023-05-15T01:09:51.738Z,10.90
2023-05-15T01:10:52.667Z,11.30
2023-05-15T01:11:53.598Z,11.10
2023-05-15T01:12:54.492Z,11.30
2023-05-15T01:13:55.414Z,10.90
2023-05-15T01:14:56.270Z,9.10
2023-05-15T01:15:57.186Z,10.30
2023-05-15T01:16:58.057Z,10.60
2023-05-15T01:17:58.971Z,9.60
2023-05-15T01:18:59.954Z,9.00
2023-05-15T01:20:00.911Z,9.20
2023-05-15T01:21:01.865Z,11.20
2023-05-15T01:22:02.728Z,11.10
2023-05-15T01:23:03.614Z,10.50
2023-05-15T01:24:04.512Z,10.70
2023-05-15T01:25:05.404Z,9.70
2023-05-15T01:26:06.287Z,11.40
2023-05-15T01:27:07.173Z,11.70
2023-05-15T01:28:08.073Z,12.50
2023-05-15T01:29:08.946Z,11.40
2023-05-15T01:30:09.868Z,12.00
2023-05-15T01:31:10.764Z,12.50
2023-05-15T01:32:11.680Z,11.00
2023-05-15T01:33:12.576Z,12.10
2023-05-15T01:34:13.463Z,11.50
2023-05-15T01:35:14.381Z,9.10
2023-05-15T01:36:15.267Z,10.10
2023-05-15T01:37:16.155Z,11.20
2023-05-15T01:38:17.040Z,10.80
2023-05-15T01:39:17.960Z,10.80
2023-05-15T01:40:18.848Z,8.80
2023-05-15T01:41:19.722Z,11.00
2023-05-15T01:42:20.607Z,11.90
2023-05-15T01:43:21.537Z,7.10
2023-05-15T01:44:22.441Z,9.30
2023-05-15T01:45:23.532Z,10.30
2023-05-15T01:46:24.044Z,11.70
2023-05-15T01:47:24.997Z,12.20
2023-05-15T01:48:25.877Z,10.70
2023-05-15T01:49:26.780Z,7.70
2023-05-15T01:50:27.668Z,8.80
2023-05-15T01:51:28.568Z,8.40
2023-05-15T01:52:29.469Z,8.40
2023-05-15T01:53:30.360Z,10.60
2023-05-15T01:54:31.254Z,9.10
2023-05-15T01:55:32.154Z,9.80
2023-05-15T01:56:33.033Z,11.70
2023-05-15T01:57:33.948Z,12.10
2023-05-15T01:58:34.897Z,13.40
2023-05-15T01:59:35.740Z,12.40
2023-05-15T02:00:36.625Z,12.20
2023-05-15T02:01:37.533Z,11.40
2023-05-15T02:02:38.494Z,12.30
2023-05-15T02:03:39.482Z,10.30
2023-05-15T02:04:39.900Z,9.40
2023-05-15T02:05:40.794Z,10.90
2023-05-15T02:06:41.696Z,12.10
2023-05-15T02:07:42.624Z,10.10
2023-05-15T02:08:43.497Z,7.80
2023-05-15T02:09:44.378Z,5.20
2023-05-15T02:10:45.269Z,7.90
2023-05-15T02:11:46.180Z,10.50
2023-05-15T02:12:47.079Z,12.00
2023-05-15T02:13:47.983Z,11.90
2023-05-15T02:14:48.882Z,12.50
2023-05-15T02:15:49.783Z,13.90
2023-05-15T02:16:50.715Z,13.80
2023-05-15T02:17:51.624Z,13.10
2023-05-15T02:18:52.586Z,12.20
2023-05-15T02:19:53.151Z,13.80
2023-05-15T02:20:54.175Z,12.30
2023-05-15T02:21:54.602Z,11.50
2023-05-15T02:22:55.519Z,12.90
2023-05-15T02:23:56.406Z,10.20
2023-05-15T02:24:57.304Z,12.50
2023-05-15T02:25:58.195Z,13.10
2023-05-15T02:26:59.084Z,13.00
2023-05-15T02:27:59.988Z,11.00
2023-05-15T02:29:00.877Z,9.80
2023-05-15T02:30:01.785Z,10.10
2023-05-15T02:31:02.697Z,11.60
2023-05-15T02:32:03.659Z,10.50
2023-05-15T02:33:04.186Z,10.30
2023-05-15T02:34:05.065Z,9.10
2023-05-15T02:35:05.976Z,10.50
2023-05-15T02:36:06.875Z,11.20
2023-05-15T02:37:07.761Z,13.30
2023-05-15T02:38:08.660Z,12.10
2023-05-15T02:39:09.559Z,12.30
2023-05-15T02:40:10.481Z,12.20
2023-05-15T02:41:11.368Z,13.50
2023-05-15T02:42:12.250Z,11.80
2023-05-15T02:43:13.155Z,14.00
2023-05-15T02:44:14.098Z,14.20
2023-05-15T02:45:14.988Z,12.40
2023-05-15T02:46:16.004Z,12.60
2023-05-15T02:47:16.379Z,11.20
2023-05-15T02:48:17.259Z,11.60
2023-05-15T02:49:18.175Z,13.20
2023-05-15T02:50:19.066Z,11.90
2023-05-15T02:51:19.956Z,12.40
2023-05-15T02:52:20.837Z,14.50
2023-05-15T02:53:21.775Z,12.60
2023-05-15T02:54:22.670Z,12.70
2023-05-15T02:55:23.956Z,12.50
2023-05-15T02:56:24.469Z,12.20
2023-05-15T02:57:25.344Z,12.50
2023-05-15T02:58:26.261Z,13.40
2023-05-15T02:59:27.195Z,12.70
2023-05-15T03:00:28.079Z,12.30
2023-05-15T03:01:29.018Z,10.70
2023-05-15T03:02:29.985Z,10.20
2023-05-15T03:03:30.471Z,10.90
2023-05-15T03:04:31.404Z,11.30
2023-05-15T03:05:32.278Z,11.70
2023-05-15T03:06:33.170Z,12.80
2023-05-15T03:07:34.076Z,12.90
2023-05-15T03:08:34.997Z,12.10
2023-05-15T03:09:35.900Z,12.40
2023-05-15T03:10:36.792Z,11.40
2023-05-15T03:11:37.725Z,12.50
2023-05-15T03:12:38.611Z,12.10
2023-05-15T03:13:39.523Z,11.50
2023-05-15T03:14:40.457Z,13.50
2023-05-15T03:15:41.297Z,8.60
2023-05-15T03:16:42.302Z,7.00
2023-05-15T03:17:43.262Z,10.10
2023-05-15T03:18:43.812Z,11.00
2023-05-15T03:19:44.714Z,13.80
2023-05-15T03:20:45.603Z,11.50
2023-05-15T03:21:46.503Z,12.10
2023-05-15T03:22:47.419Z,12.00
2023-05-15T03:23:48.321Z,13.40
2023-05-15T03:24:49.206Z,11.90
2023-05-15T03:25:50.105Z,12.60
2023-05-15T03:26:51.009Z,14.10
2023-05-15T03:27:51.935Z,14.10
2023-05-15T03:28:52.813Z,12.80
2023-05-15T03:29:53.726Z,14.30
2023-05-15T03:30:54.609Z,13.80
2023-05-15T03:31:55.653Z,14.00
2023-05-15T03:32:56.186Z,13.30
2023-05-15T03:33:57.031Z,13.10
2023-05-15T03:34:57.945Z,14.10
2023-05-15T03:35:58.876Z,12.60
2023-05-15T03:36:59.770Z,13.60
2023-05-15T03:38:00.659Z,14.10
2023-05-15T03:39:01.570Z,14.10
2023-05-15T03:40:02.464Z,14.30
2023-05-15T03:41:03.372Z,14.00
2023-05-15T03:42:04.317Z,15.60
2023-05-15T03:43:05.177Z,65.60
2023-05-15T03:44:06.062Z,26.40
2023-05-15T03:45:07.009Z,352.20
2023-05-15T03:46:07.957Z,25.90
2023-05-15T03:47:08.837Z,33.50
2023-05-15T03:48:09.826Z,14.50
2023-05-15T03:49:10.524Z,13.70
2023-05-15T03:50:11.468Z,13.60
2023-05-15T03:51:12.357Z,13.00
2023-05-15T03:52:13.268Z,15.40
2023-05-15T03:53:14.140Z,14.40
2023-05-15T03:54:15.034Z,15.20
2023-05-15T03:55:15.960Z,16.80
2023-05-15T03:56:16.858Z,15.90
2023-05-15T03:57:17.753Z,15.40
2023-05-15T03:58:18.677Z,16.90
2023-05-15T03:59:19.579Z,16.60
2023-05-15T04:00:20.521Z,16.70
2023-05-15T04:01:21.395Z,16.90
2023-05-15T04:02:22.358Z,17.30
2023-05-15T04:03:23.327Z,17.90
2023-05-15T04:04:24.314Z,18.10
2023-05-15T04:05:25.522Z,16.60
2023-05-15T04:06:26.123Z,18.30
2023-05-15T04:07:27.029Z,20.10
2023-05-15T04:08:27.934Z,19.70
2023-05-15T04:09:28.859Z,22.20
2023-05-15T04:10:29.761Z,23.80
2023-05-15T04:11:30.712Z,21.10
2023-05-15T04:12:31.614Z,18.00
2023-05-15T04:13:32.529Z,19.50
2023-05-15T04:14:33.425Z,20.30
2023-05-15T04:15:34.332Z,21.70
2023-05-15T04:16:35.258Z,21.90
2023-05-15T04:17:36.205Z,22.30
2023-05-15T04:18:37.141Z,23.60
2023-05-15T04:19:37.999Z,23.40
2023-05-15T04:20:38.890Z,23.80
2023-05-15T04:21:39.793Z,23.70
2023-05-15T04:22:40.694Z,23.20
2023-05-15T04:23:41.696Z,23.40
2023-05-15T04:24:42.149Z,23.20
2023-05-15T04:25:43.081Z,23.40
2023-05-15T04:26:44.019Z,25.20
2023-05-15T04:27:44.900Z,24.50
2023-05-15T04:28:56.263Z,23.40
2023-05-15T04:29:47.562Z,24.20
2023-05-15T04:30:47.477Z,25.30
2023-05-15T04:31:48.404Z,25.40
2023-05-15T04:32:49.356Z,24.70
2023-05-15T04:33:51.333Z,25.40
2023-05-15T04:34:50.802Z,27.80
2023-05-15T04:35:51.748Z,28.10
2023-05-15T04:36:52.239Z,27.50
2023-05-15T04:37:53.141Z,31.90
2023-05-15T04:38:54.023Z,28.20
2023-05-15T04:39:54.932Z,29.00
2023-05-15T04:40:55.843Z,30.50
2023-05-15T04:41:56.796Z,33.30
2023-05-15T04:42:57.649Z,30.30
2023-05-15T04:43:58.550Z,36.40
2023-05-15T04:44:59.438Z,34.50
2023-05-15T04:46:00.409Z,35.40
2023-05-15T04:47:01.268Z,32.80
2023-05-15T04:48:02.156Z,32.70
2023-05-15T04:49:03.049Z,35.70
2023-05-15T04:50:03.944Z,35.70
2023-05-15T04:51:04.925Z,37.70
2023-05-15T04:52:05.775Z,36.70
2023-05-15T04:53:06.657Z,39.30
2023-05-15T04:54:07.555Z,35.80
2023-05-15T04:55:08.465Z,36.30
2023-05-15T04:56:09.368Z,40.30
2023-05-15T04:57:10.263Z,39.20
2023-05-15T04:58:11.138Z,40.60
2023-05-15T04:59:12.021Z,43.20
2023-05-15T05:00:12.944Z,44.40
2023-05-15T05:01:13.889Z,44.80
2023-05-15T05:02:14.767Z,42.90
2023-05-15T05:03:15.714Z,43.70
2023-05-15T05:04:16.830Z,44.70
2023-05-15T05:05:17.244Z,48.90
2023-05-15T05:06:18.147Z,45.20
2023-05-15T05:07:19.103Z,45.50
2023-05-15T05:08:19.972Z,47.40
2023-05-15T05:09:20.890Z,47.30
2023-05-15T05:10:21.809Z,44.40
2023-05-15T05:11:22.686Z,49.00
2023-05-15T05:12:24.002Z,50.90
2023-05-15T05:13:24.408Z,48.60
2023-05-15T05:14:25.435Z,47.70
2023-05-15T05:15:26.221Z,47.90
2023-05-15T05:16:26.851Z,50.00
2023-05-15T05:17:27.261Z,49.90
2023-05-15T05:18:28.157Z,51.90
2023-05-15T05:19:29.090Z,52.70
2023-05-15T05:20:29.967Z,48.80
2023-05-15T05:21:30.864Z,52.30
2023-05-15T05:22:31.751Z,56.90
2023-05-15T05:23:32.755Z,55.50
2023-05-15T05:24:33.217Z,55.70
2023-05-15T05:25:34.092Z,52.90
2023-05-15T05:26:34.985Z,56.30
2023-05-15T05:27:35.861Z,54.20
2023-05-15T05:28:36.767Z,55.30
2023-05-15T05:29:38.203Z,53.30
2023-05-15T05:30:38.589Z,56.90
2023-05-15T05:31:39.513Z,54.10
2023-05-15T05:32:40.469Z,57.50
2023-05-15T05:33:41.365Z,55.80
2023-05-15T05:34:42.258Z,56.00
2023-05-15T05:35:43.157Z,60.40
2023-05-15T05:36:44.022Z,58.30
2023-05-15T05:37:44.934Z,62.70
2023-05-15T05:38:45.852Z,60.00
2023-05-15T05:39:46.771Z,59.30
2023-05-15T05:40:47.647Z,61.70
2023-05-15T05:41:48.533Z,62.60
2023-05-15T05:42:49.442Z,65.50
2023-05-15T05:43:50.350Z,62.10
2023-05-15T05:44:51.208Z,64.00
2023-05-15T05:45:52.093Z,67.10
2023-05-15T05:46:53.223Z,66.40
2023-05-15T05:47:53.670Z,66.40
2023-05-15T05:48:54.575Z,66.20
2023-05-15T05:49:55.447Z,64.80
2023-05-15T05:50:56.344Z,65.80
2023-05-15T05:51:57.266Z,70.70
2023-05-15T05:52:58.152Z,68.00
2023-05-15T05:53:59.055Z,66.90
2023-05-15T05:55:00.134Z,68.10
2023-05-15T05:56:00.586Z,66.70
2023-05-15T05:57:01.606Z,69.10
2023-05-15T05:58:03.333Z,66.10
2023-05-15T05:59:02.636Z,67.60
2023-05-15T06:00:03.509Z,64.30
2023-05-15T06:01:04.441Z,63.80
2023-05-15T06:02:05.535Z,61.60
2023-05-15T06:03:06.025Z,64.20
2023-05-15T06:04:06.619Z,63.40
2023-05-15T06:05:07.045Z,63.10
2023-05-15T06:06:07.970Z,63.30
2023-05-15T06:07:08.871Z,63.90
2023-05-15T06:08:09.783Z,62.00
2023-05-15T06:09:10.673Z,60.60
2023-05-15T06:10:11.579Z,56.60
2023-05-15T06:11:12.541Z,59.30
2023-05-15T06:12:13.422Z,57.00
2023-05-15T06:13:14.298Z,60.40
2023-05-15T06:14:15.198Z,59.20
2023-05-15T06:15:16.110Z,60.40
2023-05-15T06:16:17.127Z,59.20
2023-05-15T06:17:17.617Z,60.90
2023-05-15T06:18:18.504Z,58.00
2023-05-15T06:19:19.459Z,61.80
2023-05-15T06:20:19.937Z,58.80
2023-05-15T06:21:20.843Z,62.20
2023-05-15T06:22:21.717Z,59.20
2023-05-15T06:23:24.391Z,56.20
2023-05-15T06:24:23.393Z,59.50
2023-05-15T06:25:24.310Z,59.60
2023-05-15T06:26:25.223Z,60.60
2023-05-15T06:27:26.108Z,58.40
2023-05-15T06:28:26.998Z,56.90
2023-05-15T06:29:27.925Z,58.00
2023-05-15T06:30:28.850Z,60.00
2023-05-15T06:31:29.762Z,55.10
2023-05-15T06:32:32.017Z,56.30
2023-05-15T06:33:31.139Z,59.30
2023-05-15T06:34:32.055Z,59.00
2023-05-15T06:35:32.984Z,57.90
2023-05-15T06:36:33.955Z,57.90
2023-05-15T06:37:35.771Z,58.90
2023-05-15T06:38:35.788Z,57.70
2023-05-15T06:39:36.255Z,53.70
2023-05-15T06:40:37.157Z,56.00
2023-05-15T06:41:38.056Z,58.20
2023-05-15T06:42:38.943Z,52.50
2023-05-15T06:43:40.264Z,53.10
2023-05-15T06:44:40.704Z,54.40
2023-05-15T06:45:41.605Z,53.20
2023-05-15T06:46:42.624Z,55.80
2023-05-15T06:47:43.091Z,59.80
2023-05-15T06:48:43.966Z,59.50
2023-05-15T06:49:44.866Z,56.10
2023-05-15T06:50:45.761Z,55.20
2023-05-15T06:51:46.654Z,62.80
2023-05-15T06:52:47.575Z,57.30
2023-05-15T06:53:48.491Z,55.90
2023-05-15T06:54:49.382Z,53.50
2023-05-15T06:55:50.332Z,54.20
2023-05-15T06:56:51.209Z,54.20
2023-05-15T06:57:52.158Z,48.40
2023-05-15T06:58:53.084Z,48.60
2023-05-15T06:59:54.734Z,49.60
2023-05-15T07:00:56.366Z,49.30
2023-05-15T07:01:55.306Z,49.00
2023-05-15T07:02:56.306Z,49.00
2023-05-15T07:03:56.745Z,48.00
2023-05-15T07:04:57.707Z,50.20
2023-05-15T07:05:58.148Z,47.50
2023-05-15T07:06:59.064Z,47.20
2023-05-15T07:08:00.062Z,48.10
2023-05-15T07:09:00.946Z,48.70
2023-05-15T07:10:01.876Z,50.00
2023-05-15T07:11:02.741Z,49.30
2023-05-15T07:12:03.654Z,49.10
2023-05-15T07:13:04.552Z,46.30
2023-05-15T07:14:05.448Z,48.10
2023-05-15T07:15:06.372Z,48.70
2023-05-15T07:16:07.302Z,47.30
2023-05-15T07:17:08.288Z,45.30
2023-05-15T07:18:09.591Z,46.50
2023-05-15T07:19:10.083Z,51.20
2023-05-15T07:20:10.998Z,48.20
2023-05-15T07:21:11.893Z,44.80
2023-05-15T07:22:12.811Z,45.80
2023-05-15T07:23:13.709Z,47.00
2023-05-15T07:24:14.592Z,44.70
2023-05-15T07:25:16.841Z,47.20
2023-05-15T07:26:23.688Z,43.50
2023-05-15T07:27:18.252Z,46.60
2023-05-15T07:28:18.176Z,45.70
2023-05-15T07:29:19.030Z,48.40
2023-05-15T07:30:19.956Z,45.30
2023-05-15T07:31:20.893Z,48.60
2023-05-15T07:32:21.847Z,45.20
2023-05-15T07:33:22.793Z,45.60
2023-05-15T07:34:23.755Z,46.20
2023-05-15T07:35:24.305Z,45.70
2023-05-15T07:36:24.705Z,49.70
2023-05-15T07:37:25.633Z,49.60
2023-05-15T07:38:26.544Z,49.00
2023-05-15T07:39:27.471Z,45.60
2023-05-15T07:40:28.376Z,45.60
2023-05-15T07:41:29.291Z,46.40
2023-05-15T07:42:30.163Z,46.30
2023-05-15T07:43:31.067Z,44.70
2023-05-15T07:44:31.999Z,48.20
2023-05-15T07:45:32.957Z,48.20
2023-05-15T07:46:33.443Z,48.40
2023-05-15T07:47:34.314Z,46.70
2023-05-15T07:48:35.228Z,47.20
2023-05-15T07:49:36.134Z,50.70
2023-05-15T07:50:37.039Z,48.60
2023-05-15T07:51:37.909Z,49.70
2023-05-15T11:49:55.106Z,26.10
2023-05-15T11:50:55.597Z,25.90
2023-05-15T11:51:56.218Z,25.30
2023-05-15T11:52:56.684Z,25.50
2023-05-15T11:53:57.678Z,24.70
2023-05-15T11:54:58.093Z,25.40
2023-05-15T11:55:59.991Z,24.80
2023-05-15T11:56:59.885Z,24.00
2023-05-15T11:58:00.819Z,23.60
2023-05-15T11:59:01.728Z,22.70
2023-05-15T12:00:02.664Z,24.90
2023-05-15T12:01:03.525Z,24.00
2023-05-15T12:02:04.452Z,25.00
2023-05-15T12:03:05.428Z,25.20
2023-05-15T12:04:06.548Z,25.20
2023-05-15T12:05:07.361Z,24.00
2023-05-15T12:06:07.851Z,26.60
2023-05-15T12:07:08.762Z,26.20
2023-05-15T12:08:09.672Z,26.90
2023-05-15T12:09:10.572Z,25.70
2023-05-15T12:10:11.552Z,25.00
2023-05-15T12:11:12.488Z,25.10
2023-05-15T12:12:13.083Z,27.50
2023-05-15T12:13:13.987Z,24.70
2023-05-15T12:14:14.965Z,23.60
2023-05-15T12:15:16.012Z,25.00
2023-05-15T12:16:16.732Z,25.50
2023-05-15T12:17:17.169Z,25.20
2023-05-15T12:18:18.071Z,22.30
2023-05-15T12:19:19.072Z,25.60
2023-05-15T12:20:19.482Z,24.30
2023-05-15T12:21:20.421Z,25.90
2023-05-15T12:22:23.168Z,22.40
2023-05-15T12:23:22.384Z,24.90
2023-05-15T12:24:22.992Z,25.00
2023-05-15T12:25:28.760Z,23.30
2023-05-15T12:26:24.182Z,22.20
2023-05-15T12:27:25.083Z,22.60
2023-05-15T12:28:26.160Z,24.70
2023-05-15T12:29:26.688Z,24.00
2023-05-15T12:30:27.626Z,24.50
2023-05-15T12:31:27.981Z,23.50
2023-05-15T12:32:28.544Z,22.90
2023-05-15T12:33:29.016Z,21.30
2023-05-15T12:34:30.557Z,23.00
2023-05-15T12:35:30.101Z,23.20
2023-05-15T12:36:30.953Z,25.00
2023-05-15T12:37:31.860Z,20.90
2023-05-15T12:38:32.770Z,21.30
2023-05-15T12:39:33.696Z,21.50
2023-05-15T12:40:34.681Z,23.40
2023-05-15T12:41:35.528Z,21.90
2023-05-15T12:42:36.432Z,21.80
2023-05-15T12:43:37.421Z,22.90
2023-05-15T12:44:37.863Z,22.00
2023-05-15T12:45:38.785Z,20.80
2023-05-15T12:46:40.016Z,20.00
2023-05-15T12:47:40.799Z,21.90
2023-05-15T12:48:43.354Z,18.80
2023-05-15T12:49:41.816Z,18.60
2023-05-15T12:50:42.729Z,22.00
2023-05-15T12:51:43.642Z,22.20
2023-05-15T12:52:44.547Z,23.00
2023-05-15T12:53:45.458Z,24.10
2023-05-15T12:54:46.393Z,23.40
2023-05-15T12:55:53.328Z,25.30
2023-05-15T12:56:48.269Z,24.10
2023-05-15T13:34:25.327Z,19.10
2023-05-15T13:35:04.793Z,18.50
2023-05-15T13:36:26.792Z,18.40
2023-05-15T13:37:06.707Z,18.10
2023-05-15T13:38:09.447Z,17.80
2023-05-15T13:39:07.690Z,16.50
2023-05-15T13:40:08.608Z,17.90
2023-05-15T13:41:09.511Z,17.70
2023-05-15T13:42:10.400Z,18.10
2023-05-15T13:43:11.287Z,18.50
2023-05-15T13:44:12.187Z,15.50
2023-05-15T13:45:13.117Z,17.20
2023-05-15T13:46:14.057Z,16.80
2023-05-15T13:47:14.948Z,16.70
2023-05-15T13:48:15.877Z,16.10
2023-05-15T13:49:16.857Z,17.30
2023-05-15T13:50:17.771Z,19.80
2023-05-15T13:51:18.680Z,19.40
2023-05-15T13:52:19.600Z,19.00
2023-05-15T13:53:20.523Z,18.30
2023-05-15T13:54:21.452Z,18.30
2023-05-15T13:55:23.298Z,17.20
2023-05-15T13:56:22.947Z,19.30
2023-05-15T13:57:23.414Z,18.40
2023-05-15T13:58:24.329Z,17.80
2023-05-15T13:59:25.377Z,18.00
2023-05-15T14:00:25.932Z,17.90
2023-05-15T14:01:28.504Z,15.60
2023-05-15T14:02:27.464Z,16.30
2023-05-15T14:03:28.468Z,15.30
2023-05-15T14:04:29.090Z,16.70
2023-05-15T14:05:29.562Z,14.50
2023-05-15T14:06:30.279Z,14.80
2023-05-15T14:07:31.314Z,14.50
2023-05-15T14:08:31.967Z,13.60
2023-05-15T14:09:32.907Z,13.90
2023-05-15T14:10:33.852Z,17.00
2023-05-15T14:11:34.822Z,12.30
2023-05-15T14:12:36.422Z,12.20
2023-05-15T14:13:40.894Z,14.20
2023-05-15T14:14:37.356Z,13.10
2023-05-15T14:15:37.792Z,10.40
2023-05-15T14:16:38.751Z,11.70
2023-05-15T14:17:39.702Z,13.70
2023-05-15T14:45:28.150Z,10.90
2023-05-15T14:46:27.150Z,10.50
2023-05-15T14:47:27.546Z,9.40
2023-05-15T14:48:28.398Z,8.90
2023-05-15T14:49:29.332Z,10.20
2023-05-15T14:50:30.239Z,10.10
2023-05-15T14:51:31.283Z,11.40
2023-05-15T14:52:31.712Z,10.30
2023-05-15T14:53:32.744Z,10.50
2023-05-15T14:54:33.256Z,10.70
2023-05-15T14:55:33.683Z,9.60
2023-05-15T14:56:34.635Z,9.50
2023-05-15T14:57:35.752Z,9.40
2023-05-15T14:58:36.251Z,8.80
2023-05-15T14:59:37.506Z,8.80
2023-05-15T15:00:38.047Z,10.70
2023-05-15T15:01:38.454Z,9.20
2023-05-15T15:02:39.365Z,10.30
2023-05-15T15:03:40.364Z,11.00
2023-05-15T15:04:41.313Z,8.50
2023-05-15T15:05:42.266Z,8.90
2023-05-15T15:06:43.146Z,10.80
2023-05-15T15:07:44.035Z,10.70
2023-05-15T15:08:44.938Z,10.60
2023-05-15T15:09:45.842Z,10.40
2023-05-15T15:10:46.713Z,10.30
2023-05-15T15:11:47.653Z,13.00
2023-05-15T15:12:48.544Z,10.30
2023-05-15T15:13:49.507Z,13.70
2023-05-15T15:14:50.424Z,13.20
2023-05-15T15:15:51.718Z,13.80
2023-05-15T15:16:52.370Z,12.10
2023-05-15T15:17:52.945Z,9.80
2023-05-15T15:18:53.913Z,10.70
2023-05-15T15:19:54.332Z,12.20
2023-05-15T15:20:55.242Z,14.10
2023-05-15T15:21:56.247Z,11.50
2023-05-15T15:22:57.789Z,15.00
2023-05-15T15:23:57.710Z,11.50
2023-05-15T15:25:00.849Z,10.50
2023-05-15T15:25:59.481Z,9.90
2023-05-15T15:27:00.575Z,9.60
2023-05-15T15:28:01.166Z,10.20
2023-05-15T15:29:01.613Z,13.00
2023-05-15T15:30:02.149Z,38.50
2023-05-15T15:31:03.038Z,16.80
2023-05-15T15:32:04.023Z,18.30
2023-05-15T15:33:04.585Z,15.80
2023-05-15T15:34:05.910Z,14.80
2023-05-15T15:35:06.018Z,13.70
2023-05-15T15:36:06.658Z,11.60
2023-05-15T15:37:07.152Z,12.50
2023-05-15T15:38:07.700Z,10.00
2023-05-15T15:39:08.148Z,13.60
2023-05-15T15:40:09.116Z,10.60
2023-05-15T15:41:09.693Z,12.10
2023-05-15T15:42:10.600Z,12.40
2023-05-15T15:43:11.494Z,14.20
2023-05-15T15:44:12.382Z,11.80
2023-05-15T15:45:13.276Z,11.40
2023-05-15T15:46:14.272Z,11.90
2023-05-15T15:47:14.694Z,13.20
2023-05-15T15:48:15.696Z,11.10
2023-05-15T15:49:16.627Z,10.10
2023-05-15T15:50:17.380Z,12.60
2023-05-15T15:51:18.294Z,12.40
2023-05-15T15:52:19.638Z,13.20
2023-05-15T15:53:20.055Z,11.00
2023-05-15T15:54:21.011Z,10.50
2023-05-15T15:55:21.911Z,12.40
2023-05-15T15:56:22.833Z,9.40
2023-05-15T15:57:23.722Z,11.00
2023-05-15T15:58:24.617Z,12.30
2023-05-15T15:59:25.512Z,11.30
2023-05-15T16:00:28.238Z,10.00
2023-05-15T16:01:27.254Z,11.70
2023-05-15T16:02:28.199Z,12.50
2023-05-15T16:03:28.697Z,11.50
2023-05-15T16:04:29.674Z,13.40
2023-05-15T16:05:30.615Z,11.80
2023-05-15T16:06:31.532Z,10.60
2023-05-15T16:07:32.447Z,11.40
2023-05-15T16:08:33.330Z,12.30
2023-05-15T16:09:34.250Z,11.10
2023-05-15T16:10:35.168Z,13.60
2023-05-15T16:11:36.068Z,12.30
2023-05-15T16:12:36.983Z,11.50
2023-05-15T16:13:40.316Z,11.80
2023-05-15T16:14:38.862Z,12.60
2023-05-15T16:15:40.321Z,12.80
2023-05-15T16:16:40.659Z,11.70
2023-05-15T16:17:41.597Z,11.20
2023-05-15T16:18:42.096Z,11.40
2023-05-15T16:19:42.978Z,12.60
2023-05-15T16:20:43.948Z,11.20
2023-05-15T16:21:44.836Z,13.90
2023-05-15T16:22:45.727Z,11.50
2023-05-15T16:23:46.670Z,13.60
2023-05-15T16:24:47.624Z,10.80
2023-05-15T16:25:48.523Z,11.90
2023-05-15T16:26:49.435Z,12.70
2023-05-15T16:27:50.394Z,12.40
2023-05-15T16:28:50.881Z,10.70
2023-05-15T16:29:52.242Z,12.50
2023-05-15T16:30:53.147Z,12.00
2023-05-15T16:31:53.323Z,11.00
2023-05-15T16:32:53.763Z,12.00
2023-05-15T16:33:54.709Z,10.50
2023-05-15T16:34:55.611Z,11.60
2023-05-15T16:35:56.567Z,11.00
2023-05-15T16:36:57.456Z,13.50
2023-05-15T16:37:58.367Z,13.00
2023-05-15T16:38:59.320Z,13.10
2023-05-15T16:40:00.481Z,12.40
2023-05-15T16:41:00.889Z,12.80
2023-05-15T16:42:02.671Z,11.70
2023-05-15T16:43:02.603Z,13.10
2023-05-15T16:44:03.500Z,12.40
2023-05-15T16:45:04.409Z,11.40
2023-05-15T16:46:05.378Z,11.80
2023-05-15T16:47:06.290Z,13.60
2023-05-15T16:48:07.265Z,12.70
2023-05-15T16:49:08.675Z,13.20
2023-05-15T16:50:08.689Z,10.90
2023-05-15T16:51:09.583Z,11.40
2023-05-15T16:52:10.500Z,11.90
2023-05-15T16:53:11.468Z,11.20
2023-05-15T16:54:12.371Z,11.90
2023-05-15T16:55:13.451Z,11.40
2023-05-15T16:56:14.122Z,11.90
2023-05-15T16:57:14.573Z,10.70
2023-05-15T16:58:15.793Z,10.00
2023-05-15T16:59:16.506Z,11.90
2023-05-15T17:00:16.944Z,11.50
2023-05-15T17:01:17.910Z,11.40
2023-05-15T17:02:18.866Z,10.10
2023-05-15T17:03:19.820Z,12.20
2023-05-15T17:04:20.725Z,12.10
2023-05-15T17:05:21.637Z,11.50
2023-05-15T17:06:22.575Z,12.00
2023-05-15T17:07:23.628Z,10.70
2023-05-15T17:08:24.045Z,9.50
2023-05-15T17:09:24.946Z,12.40
2023-05-15T17:10:26.006Z,11.50
2023-05-15T17:11:26.456Z,11.70
2023-05-15T17:12:27.326Z,14.00
2023-05-15T17:13:28.217Z,11.00
2023-05-15T17:14:29.112Z,11.90
2023-05-15T17:15:30.019Z,12.40
2023-05-15T17:16:30.964Z,11.70
2023-05-15T17:17:31.893Z,15.40
2023-05-15T17:18:32.428Z,12.60
2023-05-15T17:19:32.838Z,12.50
2023-05-15T17:20:33.821Z,12.60
2023-05-15T17:21:34.732Z,13.60
2023-05-15T17:22:35.613Z,12.80
2023-05-15T17:23:36.517Z,14.60
2023-05-15T17:24:50.008Z,14.60
2023-05-15T17:25:39.228Z,14.10
2023-05-15T17:26:39.127Z,14.90
2023-05-15T17:27:40.026Z,14.00
2023-05-15T17:28:40.900Z,14.10
2023-05-15T17:29:41.845Z,14.00
2023-05-15T17:30:42.800Z,14.10
2023-05-15T17:31:43.728Z,13.60
2023-05-15T17:32:44.735Z,13.30
2023-05-15T17:33:47.509Z,14.80
2023-05-15T17:34:46.621Z,14.60
2023-05-15T17:35:47.481Z,13.40
2023-05-15T17:36:48.361Z,14.30
2023-05-15T17:37:49.252Z,14.10
2023-05-15T17:38:50.169Z,16.20
2023-05-15T17:39:51.115Z,14.50
2023-05-15T17:40:52.007Z,116.90
2023-05-15T17:41:52.891Z,29.10
2023-05-15T17:42:54.740Z,14.90
2023-05-15T17:43:55.709Z,14.80
2023-05-15T17:44:55.670Z,16.20
2023-05-15T17:45:56.666Z,16.70
2023-05-15T17:46:57.113Z,14.80
2023-05-15T17:47:58.103Z,15.10
2023-05-15T17:48:58.980Z,16.60
2023-05-15T17:49:59.903Z,15.70
2023-05-15T17:51:00.917Z,14.50
2023-05-15T17:52:01.370Z,15.00
2023-05-15T17:53:02.260Z,14.50
2023-05-15T17:54:03.225Z,15.80
2023-05-15T17:55:04.120Z,16.90
2023-05-15T17:56:05.019Z,19.00
2023-05-15T17:57:05.894Z,15.80
2023-05-15T17:58:06.797Z,15.70
2023-05-15T17:59:07.743Z,16.40
2023-05-15T18:00:08.647Z,15.10
2023-05-15T18:01:09.567Z,14.90
2023-05-15T18:02:10.455Z,15.50
2023-05-15T18:03:11.478Z,14.60
2023-05-15T18:04:11.945Z,16.30
2023-05-15T18:05:12.817Z,14.60
2023-05-15T18:06:13.692Z,17.00
2023-05-15T18:07:14.593Z,15.50
2023-05-15T18:08:15.534Z,15.90
2023-05-15T18:09:16.616Z,17.10
2023-05-15T18:10:17.029Z,16.00
2023-05-15T18:11:22.054Z,16.10
2023-05-15T18:12:19.888Z,14.70